< < Back
Terminal Aerodrome Forecast


Current Version              Previous Versions:   1  2  3  4  5  6  7  8  9  

Terminal Aerodrome Forecast

700
FTUS42 KFFC 250520
TAFMCN
TAF
KMCN 250520Z 2506/2606 00000KT P6SM SCT250
     FM251600 06007KT P6SM SCT050
     FM260100 00000KT P6SM SCT250=



Latest METAR

004
SAUS80 KWBC 250800 CCA
MTRMCN
METAR KMCN 250753Z AUTO 00000KT 10SM CLR 22/20 A3015 RMK AO2 SLP205
T02170200 TSNO


USA.gov is the U.S. government's official web portal to all federal, state and local government web resources and services.